Time;durP1;ratioP1;P1;durP2;ratioP2;P2;SDS_P1;SDS_P2;PMS_P1;PMS_P2;Temp;Humidity;BMP_temperature;BMP_pressure;BME280_temperature;BME280_humidity;BME280_pressure;Samples;Min_cycle;Max_cycle;Signal;HPM_P1;HPM_P2
2022/08/16 00:01:03;;;;;;;8.73;4.50;;;22.70;94.20;;;-147.18;100.00;67318.16;4972567;28;20552;-81
2022/08/16 00:03:31;;;;;;;7.95;4.80;;;22.60;94.40;;;-147.18;100.00;67318.16;4972204;28;20405;-81
2022/08/16 00:05:58;;;;;;;7.75;4.75;;;22.60;94.60;;;-147.18;100.00;67318.16;4975513;28;20138;-81
2022/08/16 00:08:26;;;;;;;7.43;4.55;;;22.60;94.70;;;-147.18;100.00;67318.16;4968859;28;20117;-81
2022/08/16 00:10:53;;;;;;;6.38;4.40;;;22.60;94.90;;;-147.18;100.00;67318.16;4972083;28;20489;-81
2022/08/16 00:13:21;;;;;;;6.80;4.63;;;22.60;94.90;;;-147.18;100.00;67318.16;4953922;28;20043;-81
2022/08/16 00:15:49;;;;;;;7.53;4.43;;;22.60;95.10;;;-147.18;100.00;67318.16;4976377;28;20539;-81
2022/08/16 00:18:18;;;;;;;6.20;4.47;;;22.50;95.40;;;-147.18;100.00;67318.16;4972192;28;20723;-81
2022/08/16 00:20:48;;;;;;;18.27;4.60;;;22.50;95.60;;;-147.18;100.00;67318.16;4972011;28;20049;-81
2022/08/16 00:23:15;;;;;;;6.32;4.55;;;22.50;95.70;;;-147.18;100.00;67318.16;4970378;28;20474;-81
2022/08/16 00:25:43;;;;;;;9.00;4.95;;;22.50;95.80;;;-147.18;100.00;67318.16;4971678;28;20126;-81
2022/08/16 00:28:11;;;;;;;12.95;4.55;;;22.50;95.90;;;-147.18;100.00;67318.16;4971808;28;20035;-81
2022/08/16 00:30:38;;;;;;;8.75;4.50;;;22.50;95.80;;;-147.18;100.00;67318.16;4972294;28;20046;-81
2022/08/16 00:33:06;;;;;;;8.35;5.22;;;22.50;95.90;;;-147.18;100.00;67318.16;4972055;28;20122;-81
2022/08/16 00:35:36;;;;;;;6.43;4.72;;;22.50;95.80;;;-147.18;100.00;67318.16;4957476;28;20073;-81
2022/08/16 00:38:06;;;;;;;6.73;4.80;;;22.50;95.80;;;-147.18;100.00;67318.16;4973695;28;20465;-81
2022/08/16 00:40:37;;;;;;;7.57;4.75;;;22.50;95.90;;;-147.18;100.00;67318.16;4952124;28;20051;-81
2022/08/16 00:43:09;;;;;;;8.77;5.07;;;22.50;95.90;;;-147.18;100.00;67318.16;4954161;28;20057;-81
2022/08/16 00:45:44;;;;;;;7.47;5.13;;;22.40;95.70;;;-147.18;100.00;67318.16;4973140;28;20050;-81
2022/08/16 00:48:15;;;;;;;7.78;4.90;;;22.40;95.70;;;-147.18;100.00;67318.16;4971601;28;20133;-81
2022/08/16 00:50:43;;;;;;;7.85;4.90;;;22.50;95.70;;;-147.18;100.00;67318.16;4954181;28;20102;-81
2022/08/16 00:53:17;;;;;;;6.78;5.10;;;22.40;95.70;;;-147.18;100.00;67318.16;4972440;28;20134;-81
2022/08/16 00:55:49;;;;;;;6.38;4.80;;;22.50;95.80;;;-147.18;100.00;67318.16;4958198;28;20097;-81
2022/08/16 00:58:19;;;;;;;8.40;4.75;;;22.40;95.80;;;-147.18;100.00;67318.16;4946480;28;20568;-81
2022/08/16 01:00:49;;;;;;;10.07;5.13;;;22.50;96.00;;;-147.18;100.00;67318.16;4969864;28;20508;-81
2022/08/16 01:03:20;;;;;;;7.95;5.20;;;22.50;96.00;;;-147.18;100.00;67318.16;4956496;28;20837;-81
2022/08/16 01:05:48;;;;;;;7.80;5.00;;;22.50;96.10;;;-147.18;100.00;67318.16;4958954;28;20050;-81
2022/08/16 01:08:21;;;;;;;7.85;5.18;;;22.50;96.20;;;-147.18;100.00;67318.16;4971588;28;20035;-81
2022/08/16 01:10:49;;;;;;;9.85;5.40;;;22.50;96.20;;;-147.18;100.00;67318.16;4955785;28;20170;-81
2022/08/16 01:13:28;;;;;;;9.55;5.50;;;22.50;96.40;;;-147.18;100.00;67318.16;4970751;28;20043;-81
2022/08/16 01:15:59;;;;;;;9.85;4.97;;;22.50;96.40;;;-147.18;100.00;67318.16;4958588;28;20104;-81
2022/08/16 01:18:34;;;;;;;8.35;5.47;;;22.40;96.30;;;-147.18;100.00;67318.16;4971441;28;20042;-80
2022/08/16 01:21:16;;;;;;;8.18;5.05;;;22.50;96.50;;;-147.18;100.00;67318.16;4971366;28;20047;-81
2022/08/16 01:24:30;;;;;;;8.48;5.07;;;22.50;96.70;;;-147.18;100.00;67318.16;4953685;28;20062;-81
2022/08/16 01:27:04;;;;;;;9.52;5.00;;;22.40;96.80;;;-147.18;100.00;67318.16;4970913;28;20086;-81
2022/08/16 01:29:39;;;;;;;9.13;5.30;;;22.40;96.70;;;-147.18;100.00;67318.16;4963133;28;20049;-81
2022/08/16 01:32:07;;;;;;;8.20;5.55;;;22.40;96.70;;;-147.18;100.00;67318.16;4969310;28;20085;-81
2022/08/16 01:34:34;;;;;;;8.40;5.55;;;22.40;96.80;;;-147.18;100.00;67318.16;4972652;28;20073;-81
2022/08/16 01:37:05;;;;;;;10.27;5.40;;;22.40;96.90;;;-147.18;100.00;67318.16;4958379;28;20043;-81
2022/08/16 01:39:35;;;;;;;7.32;5.20;;;22.40;97.00;;;-147.18;100.00;67318.16;4994627;22;20062;-84
2022/08/16 01:42:04;;;;;;;7.18;4.97;;;22.40;96.80;;;-147.18;100.00;67318.16;4990376;28;20043;-84
2022/08/16 01:44:31;;;;;;;7.45;5.07;;;22.40;96.90;;;-147.18;100.00;67318.16;4992114;28;20038;-84
2022/08/16 01:46:59;;;;;;;8.57;5.55;;;22.40;97.00;;;-147.18;100.00;67318.16;4991419;28;20135;-84
2022/08/16 01:49:31;;;;;;;7.90;5.38;;;22.40;97.10;;;-147.18;100.00;67318.16;4983997;28;20045;-84
2022/08/16 01:52:03;;;;;;;7.28;5.03;;;22.40;97.10;;;-147.18;100.00;67318.16;4969746;28;20042;-84
2022/08/16 01:54:46;;;;;;;8.10;5.47;;;22.40;97.10;;;-147.18;100.00;67318.16;4969690;28;20047;-84
2022/08/16 01:57:13;;;;;;;9.10;5.78;;;22.40;97.20;;;-147.18;100.00;67318.16;4972014;28;20054;-84
2022/08/16 01:59:41;;;;;;;9.25;5.85;;;22.40;97.20;;;-147.18;100.00;67318.16;4963796;28;20142;-84
2022/08/16 02:02:10;;;;;;;7.95;5.15;;;22.40;97.20;;;-147.18;100.00;67318.16;4961772;28;20521;-84
2022/08/16 02:04:38;;;;;;;7.32;5.15;;;22.40;97.40;;;-147.18;100.00;67318.16;4983421;28;20505;-84
2022/08/16 02:07:07;;;;;;;8.63;5.22;;;22.30;97.70;;;-147.18;100.00;67318.16;4963614;28;20047;-84
2022/08/16 02:09:38;;;;;;;7.78;5.15;;;22.30;97.70;;;-147.18;100.00;67318.16;4971498;28;20058;-84
2022/08/16 02:12:09;;;;;;;10.82;5.60;;;22.30;97.70;;;-147.18;100.00;67318.16;4970276;28;20412;-84
2022/08/16 02:14:39;;;;;;;8.95;5.43;;;22.30;97.80;;;-147.18;100.00;67318.16;4983334;28;20448;-84
2022/08/16 02:17:10;;;;;;;10.30;5.15;;;22.30;97.70;;;-147.18;100.00;67318.16;4966919;28;20142;-84
2022/08/16 02:19:42;;;;;;;9.95;5.43;;;22.30;97.60;;;-147.18;100.00;67318.16;4966034;28;20460;-84
2022/08/16 02:22:15;;;;;;;10.68;5.60;;;22.30;97.50;;;-147.18;100.00;67318.16;4985962;28;20047;-84
2022/08/16 02:24:42;;;;;;;10.93;5.80;;;22.30;97.60;;;-147.18;100.00;67318.16;4969284;28;20062;-84
2022/08/16 02:27:12;;;;;;;7.90;5.50;;;22.20;97.50;;;-147.18;100.00;67318.16;4973198;28;20043;-84
2022/08/16 02:29:41;;;;;;;9.13;5.07;;;22.20;97.40;;;-147.18;100.00;67318.16;4974414;28;20043;-84
2022/08/16 02:32:10;;;;;;;6.95;5.20;;;22.30;97.40;;;-147.18;100.00;67318.16;4973652;28;20113;-84
2022/08/16 02:34:37;;;;;;;8.65;4.90;;;22.30;97.40;;;-147.18;100.00;67318.16;4966907;28;20508;-84
2022/08/16 02:37:05;;;;;;;8.05;5.15;;;22.20;97.10;;;-147.18;100.00;67318.16;4985249;28;20522;-84
2022/08/16 02:39:33;;;;;;;9.00;5.47;;;22.30;97.00;;;-147.18;100.00;67318.16;4954866;28;20055;-84
2022/08/16 02:42:00;;;;;;;7.95;5.50;;;22.20;96.90;;;-147.18;100.00;67318.16;4946087;28;20078;-84
2022/08/16 02:44:30;;;;;;;9.25;6.10;;;22.20;96.70;;;-147.18;100.00;67318.16;4955683;28;20101;-84
2022/08/16 02:46:57;;;;;;;9.40;5.30;;;22.20;96.70;;;-147.18;100.00;67318.16;4956655;28;20043;-84
2022/08/16 02:49:27;;;;;;;7.30;5.22;;;22.10;96.70;;;-147.18;100.00;67318.16;4958807;28;20043;-84
2022/08/16 02:51:54;;;;;;;7.85;4.88;;;22.10;96.60;;;-147.18;100.00;67318.16;4958798;28;20513;-84
2022/08/16 02:54:21;;;;;;;7.25;4.82;;;22.10;96.50;;;-147.18;100.00;67318.16;4954778;28;20050;-84
2022/08/16 02:56:49;;;;;;;7.57;5.13;;;22.20;96.50;;;-147.18;100.00;67318.16;4961511;28;20093;-84
2022/08/16 02:59:17;;;;;;;11.65;5.13;;;22.10;96.60;;;-147.18;100.00;67318.16;4971414;28;20034;-84
2022/08/16 03:01:46;;;;;;;9.55;4.88;;;22.20;96.60;;;-147.18;100.00;67318.16;4952379;28;20059;-84
2022/08/16 03:04:22;;;;;;;7.32;5.07;;;22.00;96.40;;;-147.18;100.00;67318.16;4968977;28;20054;-84
2022/08/16 03:06:51;;;;;;;9.48;5.60;;;22.00;96.50;;;-147.18;100.00;67318.16;4943665;28;20047;-84
2022/08/16 03:09:22;;;;;;;8.48;5.22;;;22.00;96.50;;;-147.18;100.00;67318.16;4945930;28;20043;-84
2022/08/16 03:11:53;;;;;;;8.70;4.97;;;22.00;96.60;;;-147.18;100.00;67318.16;4947247;28;20074;-84
2022/08/16 03:14:21;;;;;;;9.38;5.53;;;22.10;96.80;;;-147.18;100.00;67318.16;4952197;28;20043;-84
2022/08/16 03:16:52;;;;;;;9.30;5.18;;;22.00;96.80;;;-147.18;100.00;67318.16;4951503;28;20081;-84
2022/08/16 03:19:20;;;;;;;10.10;5.35;;;22.00;96.90;;;-147.18;100.00;67318.16;4972385;28;20054;-84
2022/08/16 03:21:47;;;;;;;13.35;5.47;;;22.00;96.90;;;-147.18;100.00;67318.16;4951759;28;20049;-84
2022/08/16 03:24:15;;;;;;;7.25;5.25;;;21.90;97.10;;;-147.18;100.00;67318.16;4972484;28;20043;-84
2022/08/16 03:26:42;;;;;;;9.60;5.20;;;21.90;97.40;;;-147.18;100.00;67318.16;4944988;29;20043;-84
2022/08/16 03:29:11;;;;;;;7.28;4.95;;;21.90;97.40;;;-147.18;100.00;67318.16;4953984;28;20406;-84
2022/08/16 03:31:39;;;;;;;9.15;4.90;;;21.90;97.40;;;-147.18;100.00;67318.16;4954287;28;20047;-84
2022/08/16 03:34:08;;;;;;;8.15;5.50;;;21.80;97.20;;;-147.18;100.00;67318.16;4972254;28;20125;-84
2022/08/16 03:36:35;;;;;;;7.13;5.28;;;21.80;97.20;;;-147.18;100.00;67318.16;4969151;28;20125;-84
2022/08/16 03:39:06;;;;;;;10.23;5.70;;;21.80;97.30;;;-147.18;100.00;67318.16;4960614;28;20042;-84
2022/08/16 03:41:33;;;;;;;10.13;5.28;;;21.80;97.30;;;-147.18;100.00;67318.16;4974117;28;20066;-84
2022/08/16 03:44:01;;;;;;;10.52;5.00;;;21.80;97.40;;;-147.18;100.00;67318.16;4974578;28;20043;-84
2022/08/16 03:46:30;;;;;;;10.73;5.30;;;21.70;97.50;;;-147.18;100.00;67318.16;4968863;28;20150;-84
2022/08/16 03:48:59;;;;;;;10.50;5.35;;;21.70;97.50;;;-147.18;100.00;67318.16;4975140;28;20137;-85
2022/08/16 03:51:28;;;;;;;8.57;5.45;;;21.70;97.50;;;-147.18;100.00;67318.16;4974082;28;20055;-84
2022/08/16 03:54:01;;;;;;;11.50;5.70;;;21.70;97.60;;;-147.18;100.00;67318.16;4974619;28;20102;-84
2022/08/16 03:56:31;;;;;;;8.38;5.05;;;21.70;97.50;;;-147.18;100.00;67318.16;4973282;28;20077;-84
2022/08/16 03:59:00;;;;;;;9.18;5.28;;;21.70;97.60;;;-147.18;100.00;67318.16;4984756;28;20074;-84
2022/08/16 04:01:34;;;;;;;7.82;5.15;;;21.60;97.50;;;-147.18;100.00;67318.16;4971243;28;20575;-84
2022/08/16 04:04:01;;;;;;;9.13;5.78;;;21.60;97.60;;;-147.18;100.00;67318.16;4964281;28;20541;-84
2022/08/16 04:06:31;;;;;;;9.82;5.63;;;21.60;97.60;;;-147.18;100.00;67318.16;4973679;28;20050;-84
2022/08/16 04:08:58;;;;;;;9.27;5.55;;;21.60;97.70;;;-147.18;100.00;67318.16;4973231;28;20042;-84
2022/08/16 04:11:26;;;;;;;7.82;5.60;;;21.60;97.60;;;-147.18;100.00;67318.16;4971390;28;20132;-84
2022/08/16 04:13:54;;;;;;;8.63;5.45;;;21.50;97.60;;;-147.18;100.00;67318.16;4986498;28;20064;-82
2022/08/16 04:16:23;;;;;;;7.93;5.65;;;21.50;97.80;;;-147.18;100.00;67318.16;4956171;28;20059;-84
2022/08/16 04:18:50;;;;;;;9.90;5.78;;;21.50;98.00;;;-147.18;100.00;67318.16;4982837;28;20054;-82
2022/08/16 04:21:17;;;;;;;8.50;5.15;;;21.50;98.10;;;-147.18;100.00;67318.16;4972564;28;20089;-83
2022/08/16 04:23:47;;;;;;;9.48;6.22;;;21.50;98.00;;;-147.18;100.00;67318.16;4971161;28;20524;-83
2022/08/16 04:26:14;;;;;;;10.50;5.53;;;21.40;98.10;;;-147.18;100.00;67318.16;4971474;28;20058;-85
2022/08/16 04:28:41;;;;;;;10.27;5.70;;;21.40;98.20;;;-147.18;100.00;67318.16;4966468;28;20393;-86
2022/08/16 04:31:11;;;;;;;8.48;5.47;;;21.40;98.20;;;-147.18;100.00;67318.16;4973377;28;20042;-85
2022/08/16 04:33:42;;;;;;;9.45;5.72;;;21.30;98.30;;;-147.18;100.00;67318.16;4967386;28;20046;-85
2022/08/16 04:36:10;;;;;;;8.88;5.65;;;21.30;98.50;;;-147.18;100.00;67318.16;4955540;28;20462;-84
2022/08/16 04:38:38;;;;;;;8.35;5.57;;;21.40;98.50;;;-147.18;100.00;67318.16;4960347;28;20504;-85
2022/08/16 04:41:06;;;;;;;8.48;5.60;;;21.30;98.70;;;-147.18;100.00;67318.16;4969806;28;20046;-86
2022/08/16 04:43:37;;;;;;;10.43;5.55;;;21.30;98.70;;;-147.18;100.00;67318.16;4956191;28;20671;-87
2022/08/16 04:46:08;;;;;;;8.80;5.45;;;21.30;98.70;;;-147.18;100.00;67318.16;4954836;28;20129;-86
2022/08/16 04:48:40;;;;;;;9.35;5.78;;;21.30;98.90;;;-147.18;100.00;67318.16;4965399;28;20093;-86
2022/08/16 04:51:12;;;;;;;9.02;5.57;;;21.30;99.00;;;-147.18;100.00;67318.16;4963843;28;20047;-87
2022/08/16 04:53:44;;;;;;;9.27;5.30;;;21.20;99.00;;;-147.18;100.00;67318.16;4966520;28;20057;-86
2022/08/16 04:56:15;;;;;;;10.18;5.70;;;21.20;99.10;;;-147.18;100.00;67318.16;4972381;28;20042;-87
2022/08/16 04:58:43;;;;;;;9.85;5.57;;;21.20;99.20;;;-147.18;100.00;67318.16;4991876;28;20582;-86
2022/08/16 05:01:10;;;;;;;9.63;5.55;;;21.20;99.30;;;-147.18;100.00;67318.16;4968987;28;20054;-85
2022/08/16 05:03:38;;;;;;;8.95;5.68;;;21.20;99.30;;;-147.18;100.00;67318.16;4967719;28;20077;-86
2022/08/16 05:06:05;;;;;;;8.13;5.10;;;21.30;99.20;;;-147.18;100.00;67318.16;4990538;28;20468;-86
2022/08/16 05:08:34;;;;;;;9.30;5.70;;;21.30;99.20;;;-147.18;100.00;67318.16;4958742;28;20042;-83
2022/08/16 05:11:16;;;;;;;11.13;5.32;;;21.40;99.30;;;-147.18;100.00;67318.16;4971911;28;20138;-87
2022/08/16 05:13:47;;;;;;;11.45;5.55;;;21.30;99.30;;;-147.18;100.00;67318.16;4972142;28;20049;-87
2022/08/16 05:16:23;;;;;;;12.60;5.63;;;21.30;99.40;;;-147.18;100.00;67318.16;4966511;28;20042;-87
2022/08/16 05:18:57;;;;;;;9.13;5.40;;;21.40;99.30;;;-147.18;100.00;67318.16;4970183;28;20050;-89
2022/08/16 05:21:27;;;;;;;10.32;5.65;;;21.40;99.30;;;-147.18;100.00;67318.16;4963177;28;20046;-89
2022/08/16 05:23:56;;;;;;;6.72;4.80;;;21.40;99.20;;;-147.18;100.00;67318.16;4969495;28;20039;-88
2022/08/16 05:26:29;;;;;;;8.15;5.00;;;21.50;99.40;;;-147.18;100.00;67318.16;4979862;28;20046;-88
2022/08/16 05:28:57;;;;;;;9.77;5.03;;;21.50;99.30;;;-147.18;100.00;67318.16;4979355;28;20101;-89
2022/08/16 05:31:25;;;;;;;7.75;4.93;;;21.50;99.00;;;-147.18;100.00;67318.16;4959242;28;20210;-88
2022/08/16 05:33:53;;;;;;;8.93;4.95;;;21.50;99.00;;;-147.18;100.00;67318.16;4974604;28;20535;-89
2022/08/16 05:36:21;;;;;;;10.27;5.07;;;21.60;98.70;;;-147.18;100.00;67318.16;4982749;28;20050;-89
2022/08/16 05:38:51;;;;;;;7.40;4.60;;;21.60;98.70;;;-147.18;100.00;67318.16;4967922;28;20642;-89
2022/08/16 05:41:19;;;;;;;9.73;5.60;;;21.60;98.70;;;-147.18;100.00;67318.16;4968120;28;20050;-89
2022/08/16 05:43:47;;;;;;;9.43;5.00;;;21.70;98.70;;;-147.18;100.00;67318.16;4964389;28;20050;-88
2022/08/16 05:46:26;;;;;;;9.65;5.07;;;21.70;98.70;;;-147.18;100.00;67318.16;4981208;28;20046;-89
2022/08/16 05:48:53;;;;;;;7.75;4.65;;;21.70;98.60;;;-147.18;100.00;67318.16;4983733;28;20389;-89
2022/08/16 05:51:21;;;;;;;9.10;5.10;;;21.70;98.70;;;-147.18;100.00;67318.16;4978865;28;20101;-89
2022/08/16 05:53:48;;;;;;;7.57;4.93;;;21.80;98.60;;;-147.18;100.00;67318.16;4960695;28;20145;-89
2022/08/16 05:56:16;;;;;;;8.40;5.25;;;21.80;98.50;;;-147.18;100.00;67318.16;4983915;28;20482;-89
2022/08/16 05:58:47;;;;;;;10.25;4.82;;;21.90;98.50;;;-147.18;100.00;67318.16;4973930;28;20101;-89
2022/08/16 06:01:16;;;;;;;8.50;4.60;;;21.90;98.00;;;-147.18;100.00;67318.16;4961826;28;20050;-89
2022/08/16 06:03:48;;;;;;;8.10;4.68;;;21.90;98.10;;;-147.18;100.00;67318.16;4962571;28;20066;-89
2022/08/16 06:06:32;;;;;;;12.30;4.88;;;22.00;97.80;;;-147.18;100.00;67318.16;4979076;28;20061;-89
2022/08/16 06:09:02;;;;;;;7.38;4.78;;;22.00;97.80;;;-147.18;100.00;67318.16;4957956;28;20055;-89
2022/08/16 06:11:29;;;;;;;8.63;4.57;;;22.10;97.60;;;-147.18;100.00;67318.16;4972175;28;20405;-89
2022/08/16 06:14:03;;;;;;;10.45;4.53;;;22.10;97.40;;;-147.18;100.00;67318.16;4984799;28;20508;-89
2022/08/16 06:16:37;;;;;;;8.57;4.70;;;22.20;97.50;;;-147.18;100.00;67318.16;4988642;28;20039;-89
2022/08/16 06:19:05;;;;;;;8.55;4.88;;;22.20;97.00;;;-147.18;100.00;67318.16;4999183;28;20419;-90
2022/08/16 06:21:34;;;;;;;6.05;4.30;;;22.20;96.60;;;-147.18;100.00;67318.16;4982156;28;20128;-90
2022/08/16 06:24:04;;;;;;;10.30;4.95;;;22.30;96.70;;;-147.18;100.00;67318.16;4986721;28;20137;-92
2022/08/16 06:26:35;;;;;;;8.57;4.85;;;22.30;96.60;;;-147.18;100.00;67318.16;4978361;28;20050;-92
2022/08/16 06:29:09;;;;;;;10.07;4.90;;;22.30;96.90;;;-147.18;100.00;67318.16;4980528;28;20101;-92
2022/08/16 06:31:40;;;;;;;8.45;4.68;;;22.40;96.60;;;-147.18;100.00;67318.16;5002473;28;20135;-91
2022/08/16 06:34:07;;;;;;;7.63;4.55;;;22.50;96.70;;;-147.18;100.00;67318.16;4998605;28;20063;-92
2022/08/16 06:36:36;;;;;;;7.93;4.50;;;22.60;96.60;;;-147.18;100.00;67318.16;4993447;28;20034;-92
2022/08/16 06:39:16;;;;;;;7.20;4.47;;;22.60;96.50;;;-147.18;100.00;67318.16;4988227;28;20133;-92
2022/08/16 06:42:06;;;;;;;6.22;4.32;;;22.70;96.70;;;-147.18;100.00;67318.16;4973986;28;20054;-92
2022/08/16 06:44:52;;;;;;;9.70;4.72;;;22.80;96.30;;;-147.18;100.00;67318.16;4973629;28;20134;-93
2022/08/16 06:47:40;;;;;;;7.80;4.93;;;22.80;96.20;;;-147.18;100.00;67318.16;4974504;28;20043;-85
2022/08/16 06:50:09;;;;;;;8.10;4.43;;;22.90;96.30;;;-147.18;100.00;67318.16;4978937;28;20053;-91
2022/08/16 06:52:42;;;;;;;175.75;28.52;;;23.00;96.10;;;-147.18;100.00;67318.16;4966923;28;20432;-88
2022/08/16 06:55:12;;;;;;;12.13;5.20;;;23.00;95.90;;;-147.18;100.00;67318.16;4961900;28;20070;-92
2022/08/16 06:57:43;;;;;;;8.40;4.25;;;23.10;95.30;;;-147.18;100.00;67318.16;4975176;28;20058;-92
2022/08/16 07:00:16;;;;;;;10.30;4.57;;;23.10;95.00;;;-147.18;100.00;67318.16;4983134;28;20050;-91
2022/08/16 07:03:00;;;;;;;8.82;4.80;;;23.20;94.90;;;-147.18;100.00;67318.16;4974576;28;20050;-92
2022/08/16 07:05:30;;;;;;;9.32;4.80;;;23.30;94.80;;;-147.18;100.00;67318.16;4971171;28;20073;-92
2022/08/16 07:08:10;;;;;;;8.88;4.40;;;23.30;94.60;;;-147.18;100.00;67318.16;4977406;28;20046;-91
2022/08/16 07:10:39;;;;;;;9.88;4.40;;;23.30;94.10;;;-147.18;100.00;67318.16;4980529;28;20778;-92
2022/08/16 07:13:06;;;;;;;7.25;4.70;;;23.40;94.40;;;-147.18;100.00;67318.16;4976356;28;20085;-92
2022/08/16 07:15:37;;;;;;;9.80;4.85;;;23.40;94.70;;;-147.18;100.00;67318.16;4958947;28;20646;-93
2022/08/16 07:18:05;;;;;;;8.25;4.93;;;23.40;94.30;;;-147.18;100.00;67318.16;4966846;28;20424;-92
2022/08/16 07:20:33;;;;;;;10.60;5.13;;;23.50;94.70;;;-147.18;100.00;67318.16;4964800;28;20043;-92
2022/08/16 07:23:00;;;;;;;7.28;4.50;;;23.50;94.10;;;-147.18;100.00;67318.16;4983118;28;20501;-92
2022/08/16 07:25:35;;;;;;;7.93;4.68;;;23.50;94.50;;;-147.18;100.00;67318.16;4982121;28;20788;-92
2022/08/16 07:28:03;;;;;;;7.93;4.88;;;23.60;94.00;;;-147.18;100.00;67318.16;4988313;28;20042;-92
2022/08/16 07:30:37;;;;;;;9.27;4.88;;;23.60;94.30;;;-147.18;100.00;67318.16;4973769;28;20054;-92
2022/08/16 07:33:06;;;;;;;9.15;5.00;;;23.70;94.20;;;-147.18;100.00;67318.16;4972204;28;20077;-91
2022/08/16 07:35:34;;;;;;;10.90;5.00;;;23.70;93.30;;;-147.18;100.00;67318.16;4966536;28;20042;-92
2022/08/16 07:38:02;;;;;;;9.20;5.03;;;23.80;94.10;;;-147.18;100.00;67318.16;4988812;28;20042;-91
2022/08/16 07:40:44;;;;;;;9.32;5.03;;;23.80;94.20;;;-147.18;100.00;67318.16;5002561;23;20053;-91
2022/08/16 07:43:12;;;;;;;7.25;4.60;;;23.90;93.50;;;-147.18;100.00;67318.16;4985612;28;20053;-91
2022/08/16 07:45:40;;;;;;;9.40;5.07;;;23.90;93.10;;;-147.18;100.00;67318.16;4985971;28;20066;-91
2022/08/16 07:48:09;;;;;;;7.28;4.45;;;23.90;93.80;;;-147.18;100.00;67318.16;4984847;28;20046;-93
2022/08/16 07:50:38;;;;;;;7.68;5.03;;;24.00;92.90;;;-147.18;100.00;67318.16;4983724;28;20042;-91
2022/08/16 07:53:05;;;;;;;7.28;4.75;;;24.10;93.10;;;-147.18;100.00;67318.16;4973892;28;20046;-91
2022/08/16 07:55:34;;;;;;;8.38;5.07;;;24.10;92.80;;;-147.18;100.00;67318.16;4976188;28;20042;-92
2022/08/16 07:58:02;;;;;;;7.38;4.75;;;24.10;93.70;;;-147.18;100.00;67318.16;4988181;28;20134;-92
2022/08/16 08:00:30;;;;;;;7.40;4.45;;;24.20;93.60;;;-147.18;100.00;67318.16;4972540;28;20039;-93
2022/08/16 08:02:59;;;;;;;9.00;5.30;;;24.30;92.80;;;-147.18;100.00;67318.16;4967178;28;20047;-94
2022/08/16 08:05:29;;;;;;;8.70;4.72;;;24.30;93.40;;;-147.18;100.00;67318.16;4973442;28;20070;-94
2022/08/16 08:07:57;;;;;;;8.80;4.93;;;24.30;92.10;;;-147.18;100.00;67318.16;4973465;28;20412;-94
2022/08/16 08:10:27;;;;;;;16.10;5.47;;;24.40;93.10;;;-147.18;100.00;67318.16;4989794;28;20094;-92
2022/08/16 08:12:56;;;;;;;8.75;5.53;;;24.40;91.80;;;-147.18;100.00;67318.16;4973059;28;20042;-92
2022/08/16 08:15:24;;;;;;;10.98;5.63;;;24.40;91.70;;;-147.18;100.00;67318.16;4970076;28;20054;-92
2022/08/16 08:17:52;;;;;;;13.73;5.70;;;24.50;92.00;;;-147.18;100.00;67318.16;4986058;28;20050;-92
2022/08/16 08:20:26;;;;;;;8.45;5.95;;;24.60;92.20;;;-147.18;100.00;67318.16;4966595;28;20564;-93
2022/08/16 08:23:02;;;;;;;8.48;5.10;;;24.70;92.00;;;-147.18;100.00;67318.16;4971368;28;20121;-94
2022/08/16 08:25:37;;;;;;;8.75;5.55;;;24.70;91.80;;;-147.18;100.00;67318.16;4982537;28;20058;-91
2022/08/16 08:30:52;;;;;;;10.70;6.10;;;24.80;90.90;;;-147.18;100.00;67318.16;4960955;28;20042;-92
2022/08/16 08:33:20;;;;;;;11.18;5.45;;;24.80;90.60;;;-147.18;100.00;67318.16;4968329;28;20047;-92
2022/08/16 08:35:48;;;;;;;9.68;4.50;;;24.80;90.60;;;-147.18;100.00;67318.16;4998568;28;20125;-87
2022/08/16 08:38:17;;;;;;;9.95;4.90;;;24.80;90.30;;;-147.18;100.00;67318.16;4978600;28;20065;-86
2022/08/16 08:40:47;;;;;;;9.15;5.47;;;24.90;90.80;;;-147.18;100.00;67318.16;4977589;28;20051;-80
2022/08/16 08:43:16;;;;;;;13.13;5.57;;;24.90;90.50;;;-147.18;100.00;67318.16;4956597;28;20060;-86
2022/08/16 08:46:46;;;;;;;14.27;6.40;;;25.00;90.00;;;-147.18;100.00;67318.16;4977365;28;20039;-85
2022/08/16 08:50:16;;;;;;;11.07;5.47;;;25.00;91.20;;;-147.18;100.00;67318.16;4982324;28;20039;-87
2022/08/16 08:53:42;;;;;;;12.25;6.47;;;25.10;90.00;;;-147.18;100.00;67318.16;4991942;28;20138;-92
2022/08/16 08:56:14;;;;;;;9.07;5.80;;;25.10;89.00;;;-147.18;100.00;67318.16;4979561;28;20038;-88
2022/08/16 08:58:46;;;;;;;28.17;8.00;;;25.10;90.50;;;-147.18;100.00;67318.16;4995148;28;20051;-93
2022/08/16 09:01:32;;;;;;;9.95;6.03;;;25.20;90.80;;;-147.18;100.00;67318.16;4964066;28;20043;-90
2022/08/16 09:04:02;;;;;;;9.18;5.20;;;25.30;88.60;;;-147.18;100.00;67318.16;4983343;28;20520;-84
2022/08/16 09:06:32;;;;;;;12.23;6.03;;;25.30;89.10;;;-147.18;100.00;67318.16;4975190;28;20190;-89
2022/08/16 09:09:03;;;;;;;10.35;5.47;;;25.30;88.80;;;-147.18;100.00;67318.16;4969548;28;20055;-90
2022/08/16 09:11:34;;;;;;;9.98;5.80;;;25.30;88.40;;;-147.18;100.00;67318.16;4967496;28;20070;-89
2022/08/16 09:14:02;;;;;;;9.30;6.30;;;25.30;89.70;;;-147.18;100.00;67318.16;4973930;28;20047;-89
2022/08/16 09:16:31;;;;;;;10.40;5.22;;;25.40;88.40;;;-147.18;100.00;67318.16;4984840;28;20048;-87
2022/08/16 09:19:00;;;;;;;10.57;5.80;;;25.50;87.80;;;-147.18;100.00;67318.16;4976039;28;20058;-88
2022/08/16 09:21:29;;;;;;;11.65;5.57;;;25.40;87.40;;;-147.18;100.00;67318.16;4982324;28;20525;-89
2022/08/16 09:23:57;;;;;;;12.48;5.90;;;25.50;88.50;;;-147.18;100.00;67318.16;4971923;28;20090;-88
2022/08/16 09:26:27;;;;;;;12.70;6.22;;;25.50;88.90;;;-147.18;100.00;67318.16;4969672;28;20068;-88
2022/08/16 09:28:56;;;;;;;7.95;6.03;;;25.60;89.40;;;-147.18;100.00;67318.16;4969908;28;20031;-89
2022/08/16 09:31:24;;;;;;;8.73;5.30;;;25.60;88.20;;;-147.18;100.00;67318.16;4974184;28;20090;-90
2022/08/16 09:33:53;;;;;;;8.73;5.80;;;25.60;87.40;;;-147.18;100.00;67318.16;4981437;28;20086;-89
2022/08/16 09:36:21;;;;;;;14.07;6.22;;;25.60;87.90;;;-147.18;100.00;67318.16;4985794;28;20403;-89
2022/08/16 09:38:49;;;;;;;8.60;5.20;;;25.70;86.10;;;-147.18;100.00;67318.16;4985200;28;20065;-90
2022/08/16 09:41:17;;;;;;;8.55;5.28;;;25.70;85.60;;;-147.18;100.00;67318.16;4958692;28;20043;-90
2022/08/16 09:43:46;;;;;;;11.48;5.80;;;25.70;84.60;;;-147.18;100.00;67318.16;4961058;28;20053;-89
2022/08/16 09:46:14;;;;;;;13.90;5.68;;;25.70;87.00;;;-147.18;100.00;67318.16;4954618;28;20036;-90
2022/08/16 09:48:42;;;;;;;11.13;5.55;;;25.80;86.60;;;-147.18;100.00;67318.16;4958969;28;20146;-88
2022/08/16 09:51:10;;;;;;;11.88;5.50;;;25.80;85.70;;;-147.18;100.00;67318.16;4961672;28;20036;-90
2022/08/16 09:53:39;;;;;;;8.07;5.15;;;25.70;83.30;;;-147.18;100.00;67318.16;4955220;28;20038;-90
2022/08/16 09:56:16;;;;;;;12.25;5.97;;;25.70;83.00;;;-147.18;100.00;67318.16;4963357;28;20102;-89
2022/08/16 09:58:44;;;;;;;10.82;5.60;;;25.70;82.80;;;-147.18;100.00;67318.16;4955366;28;20515;-89
2022/08/16 10:01:12;;;;;;;20.02;6.88;;;25.80;84.20;;;-147.18;100.00;67318.16;4961547;28;20043;-89
2022/08/16 10:03:40;;;;;;;16.88;5.30;;;25.90;85.20;;;-147.18;100.00;67318.16;4954712;28;20094;-88
2022/08/16 10:06:07;;;;;;;17.02;6.88;;;25.90;84.30;;;-147.18;100.00;67318.16;4958261;28;20042;-87
2022/08/16 10:08:35;;;;;;;13.38;6.13;;;26.00;85.10;;;-147.18;100.00;67318.16;4957726;28;20461;-84
2022/08/16 10:14:04;;;;;;;11.23;6.20;;;26.00;85.70;;;-147.18;100.00;67318.16;4898726;29;20091;-87
2022/08/16 10:16:32;;;;;;;10.73;6.30;;;26.10;85.40;;;-147.18;100.00;67318.16;4903091;29;20511;-86
2022/08/16 10:19:00;;;;;;;9.27;5.32;;;26.20;84.00;;;-147.18;100.00;67318.16;4935275;28;20062;-86